createdAt,value
2023-05-14T00:01:08.552Z,10.63
2023-05-14T00:03:37.626Z,10.65
2023-05-14T00:06:06.249Z,10.60
2023-05-14T00:08:34.670Z,10.54
2023-05-14T00:11:03.148Z,10.58
2023-05-14T00:13:31.329Z,10.59
2023-05-14T00:15:59.629Z,10.58
2023-05-14T00:18:29.257Z,10.57
2023-05-14T00:20:57.580Z,10.59
2023-05-14T00:23:25.997Z,10.57
2023-05-14T00:25:54.383Z,10.55
2023-05-14T00:28:22.519Z,10.55
2023-05-14T00:30:50.841Z,10.51
2023-05-14T00:33:19.082Z,10.56
2023-05-14T00:35:48.736Z,10.53
2023-05-14T00:38:19.522Z,10.50
2023-05-14T00:40:51.993Z,10.47
2023-05-14T00:43:20.956Z,10.47
2023-05-14T00:45:51.132Z,10.46
2023-05-14T00:48:20.323Z,10.37
2023-05-14T00:50:51.033Z,10.37
2023-05-14T00:53:19.786Z,10.39
2023-05-14T00:55:49.916Z,10.25
2023-05-14T00:58:19.682Z,10.31
2023-05-14T01:00:48.222Z,10.35
2023-05-14T01:03:16.680Z,10.32
2023-05-14T01:05:58.366Z,10.31
2023-05-14T01:08:33.868Z,10.26
2023-05-14T01:11:08.226Z,10.26
2023-05-14T01:13:51.483Z,10.20
2023-05-14T01:16:21.015Z,10.28
2023-05-14T01:18:52.332Z,10.29
2023-05-14T01:21:35.336Z,10.26
2023-05-14T01:24:03.473Z,10.21
2023-05-14T01:26:32.500Z,10.18
2023-05-14T01:29:05.269Z,10.23
2023-05-14T01:31:36.124Z,10.23
2023-05-14T01:34:07.105Z,10.25
2023-05-14T01:36:37.292Z,10.27
2023-05-14T01:39:05.800Z,10.23
2023-05-14T01:41:34.687Z,10.25
2023-05-14T01:44:04.958Z,10.17
2023-05-14T01:46:33.458Z,10.15
2023-05-14T01:49:02.103Z,10.18
2023-05-14T01:51:30.384Z,10.15
2023-05-14T01:54:00.292Z,10.13
2023-05-14T01:56:28.497Z,10.18
2023-05-14T01:58:57.129Z,10.17
2023-05-14T02:01:26.343Z,10.19
2023-05-14T02:03:55.207Z,10.18
2023-05-14T02:06:23.502Z,10.22
2023-05-14T02:08:53.020Z,10.26
2023-05-14T02:11:22.625Z,10.23
2023-05-14T02:13:52.588Z,10.24
2023-05-14T02:16:21.160Z,10.23
2023-05-14T02:18:49.436Z,10.18
2023-05-14T02:25:26.100Z,10.11
2023-05-14T02:27:55.621Z,10.15
2023-05-14T02:30:24.157Z,10.15
2023-05-14T02:32:52.569Z,10.13
2023-05-14T02:35:22.907Z,9.95
2023-05-14T02:37:51.186Z,10.02
2023-05-14T02:40:19.320Z,10.03
2023-05-14T02:43:38.495Z,10.02
2023-05-14T02:46:08.159Z,10.04
2023-05-14T02:49:26.235Z,10.04
2023-05-14T02:51:55.029Z,10.02
2023-05-14T02:54:23.405Z,10.05
2023-05-14T02:56:51.638Z,10.02
2023-05-14T02:59:19.858Z,10.06
2023-05-14T03:01:49.769Z,10.04
2023-05-14T03:04:18.545Z,9.99
2023-05-14T03:06:46.633Z,10.03
2023-05-14T03:09:40.380Z,10.03
2023-05-14T03:12:09.277Z,9.98
2023-05-14T03:14:37.308Z,10.00
2023-05-14T03:17:07.348Z,9.98
2023-05-14T03:19:35.568Z,9.97
2023-05-14T03:22:04.045Z,9.94
2023-05-14T03:24:32.142Z,9.95
2023-05-14T03:27:00.185Z,9.94
2023-05-14T03:29:28.234Z,9.94
2023-05-14T03:31:56.422Z,9.83
2023-05-14T03:34:26.222Z,9.90
2023-05-14T03:36:54.408Z,9.94
2023-05-14T03:39:22.580Z,9.93
2023-05-14T03:41:50.832Z,9.92
2023-05-14T03:44:19.414Z,9.90
2023-05-14T03:46:47.590Z,9.90
2023-05-14T03:49:15.898Z,9.87
2023-05-14T03:51:45.482Z,9.89
2023-05-14T03:54:13.867Z,9.88
2023-05-14T03:56:42.026Z,9.87
2023-05-14T03:59:10.342Z,9.83
2023-05-14T04:01:38.567Z,9.88
2023-05-14T04:04:07.130Z,9.84
2023-05-14T04:06:36.361Z,9.82
2023-05-14T04:09:06.158Z,9.79
2023-05-14T04:11:34.332Z,9.80
2023-05-14T04:14:02.724Z,9.79
2023-05-14T04:16:31.462Z,9.74
2023-05-14T04:19:24.323Z,9.79
2023-05-14T04:21:52.523Z,9.75
2023-05-14T04:24:22.134Z,9.79
2023-05-14T04:26:50.202Z,9.67
2023-05-14T04:29:18.436Z,9.75
2023-05-14T04:31:46.828Z,9.75
2023-05-14T04:34:14.968Z,9.71
2023-05-14T04:36:43.210Z,9.69
2023-05-14T04:39:12.516Z,9.64
2023-05-14T04:41:42.802Z,9.55
2023-05-14T04:44:11.171Z,9.57
2023-05-14T04:46:39.447Z,9.60
2023-05-14T04:49:07.952Z,9.60
2023-05-14T04:51:36.190Z,9.61
2023-05-14T04:54:04.385Z,9.59
2023-05-14T04:56:32.568Z,9.56
2023-05-14T04:59:02.151Z,9.55
2023-05-14T05:01:30.624Z,9.56
2023-05-14T05:04:48.600Z,9.58
2023-05-14T05:07:16.687Z,9.54
2023-05-14T05:09:45.116Z,9.47
2023-05-14T05:12:13.530Z,9.52
2023-05-14T05:14:42.937Z,9.57
2023-05-14T05:17:11.042Z,9.55
2023-05-14T05:19:43.870Z,9.53
2023-05-14T05:22:37.656Z,9.57
2023-05-14T05:25:07.293Z,9.53
2023-05-14T05:27:35.644Z,9.53
2023-05-14T05:30:06.476Z,9.51
2023-05-14T05:32:34.857Z,9.54
2023-05-14T05:35:03.446Z,9.56
2023-05-14T05:37:31.816Z,9.58
2023-05-14T05:39:59.938Z,9.62
2023-05-14T05:42:28.176Z,9.64
2023-05-14T05:44:56.641Z,9.66
2023-05-14T05:47:26.356Z,9.68
2023-05-14T05:49:55.182Z,9.67
2023-05-14T05:52:23.411Z,9.67
2023-05-14T05:54:51.562Z,9.63
2023-05-14T05:57:19.755Z,9.66
2023-05-14T05:59:47.977Z,9.67
2023-05-14T06:02:16.198Z,9.69
2023-05-14T06:04:45.896Z,9.73
2023-05-14T06:07:14.023Z,9.74
2023-05-14T06:09:42.306Z,9.77
2023-05-14T06:12:11.206Z,9.80
2023-05-14T06:14:39.271Z,9.77
2023-05-14T06:17:07.750Z,9.73
2023-05-14T06:19:36.422Z,9.73
2023-05-14T06:22:06.455Z,9.69
2023-05-14T06:24:35.047Z,9.60
2023-05-14T06:27:03.516Z,9.74
2023-05-14T06:29:37.820Z,9.80
2023-05-14T06:32:06.693Z,9.89
2023-05-14T06:34:37.559Z,9.87
2023-05-14T06:37:11.719Z,9.84
2023-05-14T06:39:40.374Z,9.85
2023-05-14T06:42:08.712Z,9.85
2023-05-14T06:44:37.397Z,9.85
2023-05-14T06:47:08.544Z,9.89
2023-05-14T06:49:37.138Z,9.90
2023-05-14T06:52:06.606Z,9.85
2023-05-14T06:54:36.240Z,9.93
2023-05-14T06:57:04.946Z,9.93
2023-05-14T06:59:33.368Z,9.92
2023-05-14T07:02:01.439Z,9.95
2023-05-14T07:04:29.667Z,10.00
2023-05-14T07:06:57.826Z,9.95
2023-05-14T07:09:26.098Z,10.01
2023-05-14T07:11:55.627Z,10.11
2023-05-14T07:14:23.800Z,10.09
2023-05-14T07:16:51.945Z,10.12
2023-05-14T07:19:20.162Z,10.14
2023-05-14T07:21:48.510Z,10.15
2023-05-14T07:24:17.065Z,10.07
2023-05-14T07:27:12.572Z,10.06
2023-05-14T07:29:40.698Z,10.21
2023-05-14T07:32:08.813Z,10.27
2023-05-14T07:34:37.190Z,10.34
2023-05-14T07:37:05.903Z,10.42
2023-05-14T07:39:34.096Z,10.51
2023-05-14T07:42:02.782Z,10.55
2023-05-14T07:44:32.440Z,10.61
2023-05-14T07:47:00.873Z,10.69
2023-05-14T07:49:29.029Z,10.67
2023-05-14T07:51:57.269Z,10.82
2023-05-14T07:54:25.554Z,10.92
2023-05-14T07:56:54.050Z,10.98
2023-05-14T07:59:22.198Z,11.00
2023-05-14T08:01:51.706Z,10.76
2023-05-14T08:04:20.057Z,10.97
2023-05-14T08:06:48.241Z,10.90
2023-05-14T08:09:16.585Z,11.12
2023-05-14T08:11:44.897Z,11.17
2023-05-14T08:14:13.065Z,11.30
2023-05-14T08:16:41.119Z,11.27
2023-05-14T08:19:10.623Z,11.39
2023-05-14T08:21:39.029Z,11.26
2023-05-14T08:24:07.750Z,11.48
2023-05-14T08:26:36.018Z,11.58
2023-05-14T08:29:04.179Z,11.54
2023-05-14T08:31:32.398Z,11.51
2023-05-14T08:34:00.664Z,11.57
2023-05-14T08:36:30.148Z,11.64
2023-05-14T08:38:58.291Z,11.71
2023-05-14T08:41:26.679Z,11.72
2023-05-14T08:44:02.255Z,11.66
2023-05-14T08:46:32.020Z,11.99
2023-05-14T08:49:10.699Z,12.15
2023-05-14T08:51:41.014Z,12.77
2023-05-14T08:54:09.268Z,13.06
2023-05-14T08:56:39.575Z,13.06
2023-05-14T08:59:07.885Z,12.68
2023-05-14T09:01:36.527Z,13.19
2023-05-14T09:04:08.562Z,13.67
2023-05-14T09:06:37.950Z,14.04
2023-05-14T09:09:07.799Z,14.01
2023-05-14T09:11:35.979Z,14.12
2023-05-14T09:14:04.367Z,14.27
2023-05-14T09:16:58.111Z,14.01
2023-05-14T09:19:27.229Z,14.45
2023-05-14T09:24:21.334Z,15.15
2023-05-14T09:26:52.749Z,14.68
2023-05-14T09:29:21.031Z,14.76
2023-05-14T09:31:51.663Z,15.27
2023-05-14T09:34:27.207Z,15.29
2023-05-14T09:36:59.090Z,15.10
2023-05-14T09:39:29.292Z,15.19
2023-05-14T09:41:58.162Z,15.07
2023-05-14T09:44:26.885Z,14.68
2023-05-14T09:46:55.647Z,15.04
2023-05-14T09:49:23.879Z,15.83
2023-05-14T09:51:52.393Z,15.33
2023-05-14T09:54:20.502Z,15.47
2023-05-14T09:56:50.170Z,15.66
2023-05-14T09:59:18.278Z,15.52
2023-05-14T10:01:47.000Z,15.27
2023-05-14T10:04:16.154Z,15.45
2023-05-14T10:06:48.417Z,16.12
2023-05-14T10:09:22.214Z,16.38
2023-05-14T10:11:55.953Z,16.47
2023-05-14T10:14:28.072Z,16.30
2023-05-14T10:17:00.212Z,16.49
2023-05-14T10:19:31.035Z,16.56
2023-05-14T10:22:05.083Z,16.81
2023-05-14T10:24:34.494Z,16.09
2023-05-14T10:27:04.525Z,16.54
2023-05-14T10:29:35.017Z,16.80
2023-05-14T10:32:06.152Z,17.00
2023-05-14T10:34:38.669Z,16.98
2023-05-14T10:37:32.494Z,17.42
2023-05-14T10:40:03.835Z,17.39
2023-05-14T10:42:37.589Z,17.54
2023-05-14T10:45:08.713Z,17.73
2023-05-14T10:47:38.816Z,16.67
2023-05-14T10:50:09.648Z,17.16
2023-05-14T10:52:38.242Z,17.36
2023-05-14T10:55:08.222Z,17.76
2023-05-14T10:57:39.417Z,18.12
2023-05-14T11:00:10.862Z,18.29
2023-05-14T11:02:40.998Z,18.49
2023-05-14T11:05:11.647Z,18.68
2023-05-14T11:07:41.219Z,17.97
2023-05-14T11:10:11.652Z,18.22
2023-05-14T11:12:43.310Z,17.96
2023-05-14T11:15:13.228Z,18.40
2023-05-14T11:17:43.777Z,18.68
2023-05-14T11:20:14.168Z,18.85
2023-05-14T11:22:43.774Z,19.14
2023-05-14T11:25:14.856Z,19.40
2023-05-14T11:27:46.706Z,19.68
2023-05-14T11:30:17.223Z,19.78
2023-05-14T11:32:47.139Z,19.93
2023-05-14T11:35:17.165Z,20.00
2023-05-14T11:37:52.221Z,19.99
2023-05-14T11:40:20.830Z,20.20
2023-05-14T11:42:52.328Z,19.83
2023-05-14T11:45:26.840Z,20.14
2023-05-14T11:47:55.224Z,20.14
2023-05-14T11:50:23.952Z,20.44
2023-05-14T11:52:52.647Z,20.51
2023-05-14T11:55:21.069Z,20.43
2023-05-14T11:57:51.315Z,20.81
2023-05-14T12:00:23.301Z,20.90
2023-05-14T12:02:51.972Z,20.84
2023-05-14T12:05:20.608Z,20.88
2023-05-14T12:07:49.072Z,21.37
2023-05-14T12:10:17.365Z,20.80
2023-05-14T12:12:48.237Z,21.26
2023-05-14T12:15:18.261Z,21.83
2023-05-14T12:17:51.958Z,22.19
2023-05-14T12:20:20.436Z,22.31
2023-05-14T12:22:48.879Z,22.33
2023-05-14T12:25:17.274Z,22.65
2023-05-14T12:27:46.444Z,22.88
2023-05-14T12:32:49.194Z,22.31
2023-05-14T12:35:17.765Z,22.27
2023-05-14T12:37:46.142Z,22.62
2023-05-14T12:40:14.605Z,21.83
2023-05-14T12:42:42.727Z,22.35
2023-05-14T12:45:12.358Z,22.55
2023-05-14T12:47:45.606Z,21.99
2023-05-14T12:50:15.394Z,21.62
2023-05-14T12:52:43.544Z,21.38
2023-05-14T12:55:11.880Z,21.34
2023-05-14T12:57:40.467Z,21.03
2023-05-14T13:00:13.985Z,20.69
2023-05-14T13:02:43.885Z,20.67
2023-05-14T13:05:12.851Z,20.77
2023-05-14T13:07:42.876Z,21.24
2023-05-14T13:10:12.093Z,20.56
2023-05-14T13:12:40.560Z,20.27
2023-05-14T13:15:10.190Z,20.23
2023-05-14T13:17:38.588Z,20.16
2023-05-14T13:20:08.407Z,19.90
2023-05-14T13:22:36.693Z,19.73
2023-05-14T13:25:07.599Z,20.03
2023-05-14T13:27:37.052Z,19.76
2023-05-14T13:30:06.075Z,19.54
2023-05-14T13:32:34.842Z,19.57
2023-05-14T13:35:03.498Z,19.73
2023-05-14T13:37:31.993Z,19.67
2023-05-14T13:40:00.438Z,19.52
2023-05-14T13:42:30.195Z,19.55
2023-05-14T13:45:00.376Z,19.74
2023-05-14T13:47:28.911Z,19.58
2023-05-14T13:49:57.578Z,19.62
2023-05-14T13:52:26.632Z,19.62
2023-05-14T13:55:47.846Z,19.52
2023-05-14T13:58:18.826Z,19.81
2023-05-14T14:00:46.986Z,19.92
2023-05-14T14:03:15.172Z,19.68
2023-05-14T14:05:43.452Z,19.54
2023-05-14T14:08:22.730Z,19.49
2023-05-14T14:10:52.286Z,19.60
2023-05-14T14:13:25.450Z,19.43
2023-05-14T14:15:53.944Z,19.63
2023-05-14T14:18:22.587Z,19.52
2023-05-14T14:20:53.350Z,19.51
2023-05-14T14:23:21.653Z,19.61
2023-05-14T14:25:50.417Z,19.82
2023-05-14T14:28:19.637Z,19.90
2023-05-14T14:30:51.768Z,19.90
2023-05-14T14:33:20.983Z,19.96
2023-05-14T14:35:49.463Z,20.02
2023-05-14T14:38:17.844Z,20.11
2023-05-14T14:40:47.047Z,20.11
2023-05-14T14:43:15.754Z,20.23
2023-05-14T14:45:48.174Z,20.00
2023-05-14T14:48:31.017Z,19.83
2023-05-14T14:51:00.205Z,19.85
2023-05-14T14:53:28.781Z,20.02
2023-05-14T14:55:57.267Z,20.17
2023-05-14T14:58:26.352Z,20.16
2023-05-14T15:00:56.415Z,20.12
2023-05-14T15:03:26.742Z,19.99
2023-05-14T15:05:55.423Z,20.09
2023-05-14T15:08:27.657Z,20.20
2023-05-14T15:10:56.280Z,20.29
2023-05-14T15:13:25.857Z,20.25
2023-05-14T15:15:54.027Z,20.29
2023-05-14T15:18:22.331Z,20.40
2023-05-14T15:20:52.861Z,20.46
2023-05-14T15:23:22.122Z,20.51
2023-05-14T15:25:50.774Z,20.56
2023-05-14T15:28:19.313Z,20.72
2023-05-14T15:30:49.264Z,20.69
2023-05-14T15:33:19.573Z,20.65
2023-05-14T15:35:48.346Z,20.66
2023-05-14T15:38:18.256Z,20.69
2023-05-14T15:40:46.826Z,20.49
2023-05-14T15:43:15.288Z,20.54
2023-05-14T15:45:45.617Z,20.47
2023-05-14T15:48:14.101Z,20.50
2023-05-14T15:50:43.534Z,20.68
2023-05-14T15:53:11.874Z,20.53
2023-05-14T15:55:41.999Z,20.70
2023-05-14T15:58:10.894Z,20.68
2023-05-14T16:00:39.922Z,20.63
2023-05-14T16:03:08.636Z,20.88
2023-05-14T16:05:38.097Z,20.74
2023-05-14T16:08:07.190Z,20.95
2023-05-14T16:10:36.395Z,20.92
2023-05-14T16:13:06.823Z,21.06
2023-05-14T16:15:45.817Z,21.17
2023-05-14T16:18:21.944Z,21.25
2023-05-14T16:20:52.488Z,21.32
2023-05-14T16:23:21.477Z,21.38
2023-05-14T16:25:51.410Z,21.50
2023-05-14T16:28:21.193Z,21.77
2023-05-14T16:30:49.607Z,21.59
2023-05-14T16:33:18.376Z,21.68
2023-05-14T16:35:46.774Z,21.76
2023-05-14T16:42:59.094Z,22.17
2023-05-14T16:45:28.701Z,22.32
2023-05-14T16:47:56.916Z,22.39
2023-05-14T16:50:25.013Z,22.35
2023-05-14T16:52:53.360Z,22.56
2023-05-14T16:55:21.758Z,22.74
2023-05-14T16:57:50.119Z,22.66
2023-05-14T17:00:18.735Z,22.63
2023-05-14T17:02:49.845Z,22.42
2023-05-14T17:05:18.605Z,22.29
2023-05-14T17:07:47.132Z,21.95
2023-05-14T17:10:15.847Z,21.74
2023-05-14T17:12:44.410Z,21.52
2023-05-14T17:15:13.392Z,21.57
2023-05-14T17:17:42.013Z,21.54
2023-05-14T17:20:15.932Z,21.32
2023-05-14T17:22:45.283Z,21.15
2023-05-14T17:25:14.686Z,21.07
2023-05-14T17:27:42.934Z,20.80
2023-05-14T17:30:11.879Z,20.70
2023-05-14T17:32:40.235Z,20.61
2023-05-14T17:35:09.762Z,20.59
2023-05-14T17:37:39.468Z,20.58
2023-05-14T17:40:09.065Z,20.57
2023-05-14T17:42:37.548Z,20.57
2023-05-14T17:45:06.960Z,20.44
2023-05-14T17:47:35.576Z,20.37
2023-05-14T17:50:04.211Z,20.39
2023-05-14T17:52:32.806Z,20.35
2023-05-14T17:55:02.869Z,20.30
2023-05-14T17:57:31.522Z,20.26
2023-05-14T17:59:59.825Z,20.19
2023-05-14T18:02:28.931Z,20.08
2023-05-14T18:04:57.554Z,20.06
2023-05-14T18:07:25.985Z,20.06
2023-05-14T18:09:54.187Z,20.00
2023-05-14T18:12:25.012Z,19.91
2023-05-14T18:14:53.241Z,19.84
2023-05-14T18:17:21.771Z,19.75
2023-05-14T18:19:50.006Z,19.70
2023-05-14T18:22:18.256Z,19.65
2023-05-14T18:24:46.557Z,19.60
2023-05-14T18:27:15.204Z,19.47
2023-05-14T18:29:45.016Z,19.42
2023-05-14T18:32:13.596Z,19.36
2023-05-14T18:34:42.175Z,19.36
2023-05-14T18:37:10.705Z,19.34
2023-05-14T18:39:39.152Z,19.26
2023-05-14T18:42:08.258Z,19.20
2023-05-14T18:44:36.943Z,19.08
2023-05-14T18:47:07.046Z,19.09
2023-05-14T18:49:35.733Z,19.08
2023-05-14T18:52:04.099Z,19.04
2023-05-14T18:54:32.442Z,19.02
2023-05-14T18:57:01.437Z,18.99
2023-05-14T18:59:30.463Z,18.89
2023-05-14T19:02:02.385Z,18.84
2023-05-14T19:04:47.787Z,18.85
2023-05-14T19:07:16.508Z,18.78
2023-05-14T19:09:44.826Z,18.68
2023-05-14T19:12:13.243Z,18.64
2023-05-14T19:14:41.460Z,18.61
2023-05-14T19:17:10.135Z,18.58
2023-05-14T19:19:40.455Z,18.54
2023-05-14T19:22:08.907Z,18.49
2023-05-14T19:24:37.844Z,18.47
2023-05-14T19:27:06.721Z,18.42
2023-05-14T19:29:36.852Z,18.37
2023-05-14T19:32:06.124Z,18.35
2023-05-14T19:34:34.612Z,18.28
2023-05-14T19:37:05.138Z,18.20
2023-05-14T19:39:33.613Z,18.20
2023-05-14T19:42:02.100Z,18.15
2023-05-14T19:44:30.959Z,18.08
2023-05-14T19:46:59.404Z,18.03
2023-05-14T19:49:28.134Z,18.03
2023-05-14T19:51:56.525Z,17.98
2023-05-14T19:54:26.465Z,17.90
2023-05-14T19:56:55.155Z,17.91
2023-05-14T19:59:24.969Z,17.86
2023-05-14T20:01:54.910Z,17.82
2023-05-14T20:04:23.440Z,17.78
2023-05-14T20:06:52.736Z,17.77
2023-05-14T20:09:21.405Z,17.73
2023-05-14T20:11:51.433Z,17.68
2023-05-14T20:14:19.560Z,17.65
2023-05-14T20:16:51.453Z,17.68
2023-05-14T20:19:21.405Z,17.67
2023-05-14T20:21:50.043Z,17.63
2023-05-14T20:24:18.362Z,17.53
2023-05-14T20:26:46.709Z,17.53
2023-05-14T20:29:16.412Z,17.52
2023-05-14T20:31:44.785Z,17.44
2023-05-14T20:34:12.979Z,17.45
2023-05-14T20:36:41.883Z,17.37
2023-05-14T20:39:11.279Z,17.37
2023-05-14T20:41:39.537Z,17.32
2023-05-14T20:44:07.930Z,17.31
2023-05-14T20:46:38.171Z,17.27
2023-05-14T20:49:06.522Z,17.25
2023-05-14T20:51:34.975Z,17.22
2023-05-14T20:54:03.552Z,17.25
2023-05-14T20:56:32.051Z,17.20
2023-05-14T20:59:00.329Z,17.18
2023-05-14T21:01:37.685Z,17.12
2023-05-14T21:04:08.359Z,17.09
2023-05-14T21:06:36.740Z,17.02
2023-05-14T21:09:05.375Z,16.96
2023-05-14T21:11:33.852Z,17.00
2023-05-14T21:14:02.058Z,16.96
2023-05-14T21:16:33.395Z,16.93
2023-05-14T21:19:01.568Z,16.91
2023-05-14T21:21:31.355Z,16.86
2023-05-14T21:23:59.390Z,16.84
2023-05-14T21:26:27.632Z,16.84
2023-05-14T21:28:55.777Z,16.76
2023-05-14T21:31:23.952Z,16.82
2023-05-14T21:33:52.324Z,16.77
2023-05-14T21:36:21.220Z,16.69
2023-05-14T21:38:50.765Z,16.70
2023-05-14T21:41:19.089Z,16.70
2023-05-14T21:43:47.464Z,16.66
2023-05-14T21:46:16.394Z,16.69
2023-05-14T21:48:44.851Z,16.58
2023-05-14T21:51:13.459Z,16.57
2023-05-14T21:53:41.538Z,16.54
2023-05-14T21:56:11.247Z,16.45
2023-05-14T21:58:39.468Z,16.43
2023-05-14T22:01:09.051Z,16.43
2023-05-14T22:03:37.410Z,16.35
2023-05-14T22:06:06.594Z,16.36
2023-05-14T22:08:34.733Z,16.21
2023-05-14T22:11:03.068Z,16.26
2023-05-14T22:13:32.828Z,16.23
2023-05-14T22:16:12.001Z,16.20
2023-05-14T22:18:41.941Z,16.23
2023-05-14T22:21:10.538Z,16.23
2023-05-14T22:23:38.848Z,16.19
2023-05-14T22:26:07.231Z,16.21
2023-05-14T22:28:39.818Z,16.21
2023-05-14T22:31:08.163Z,16.15
2023-05-14T22:33:37.231Z,16.17
2023-05-14T22:36:07.038Z,16.08
2023-05-14T22:38:35.913Z,16.10
2023-05-14T22:41:04.015Z,16.09
2023-05-14T22:43:32.635Z,16.08
2023-05-14T22:46:02.347Z,16.11
2023-05-14T22:48:30.617Z,16.11
2023-05-14T22:50:58.792Z,16.08
2023-05-14T22:53:27.227Z,16.09
2023-05-14T22:55:55.674Z,16.07
2023-05-14T22:58:23.985Z,16.05
2023-05-14T23:00:52.303Z,16.01
2023-05-14T23:03:22.062Z,15.93
2023-05-14T23:05:50.354Z,15.89
2023-05-14T23:08:18.471Z,15.98
2023-05-14T23:10:46.658Z,15.90
2023-05-14T23:13:14.813Z,15.88
2023-05-14T23:15:44.087Z,15.87
2023-05-14T23:18:12.440Z,15.81
2023-05-14T23:20:42.128Z,15.82
2023-05-14T23:23:10.219Z,15.82
2023-05-14T23:25:38.304Z,15.79
2023-05-14T23:28:06.464Z,15.80
2023-05-14T23:30:34.716Z,15.77
2023-05-14T23:33:02.945Z,15.71
2023-05-14T23:35:33.795Z,15.75
2023-05-14T23:38:03.437Z,15.69
2023-05-14T23:40:31.716Z,15.72
2023-05-14T23:43:00.526Z,15.70
2023-05-14T23:45:29.069Z,15.72
2023-05-14T23:47:59.093Z,15.74
2023-05-14T23:50:27.363Z,15.74
2023-05-14T23:52:56.395Z,15.74
2023-05-14T23:55:26.289Z,15.55
2023-05-14T23:57:54.972Z,15.57
